sensor_id;sensor_type;location;lat;lon;timestamp;P1;durP1;ratioP1;P2;durP2;ratioP2
60612;SDS011;46443;59.792;17.626;2022-12-18T00:00:44;22.92;;;10.15;;
60612;SDS011;46443;59.792;17.626;2022-12-18T00:03:12;23.40;;;10.40;;
60612;SDS011;46443;59.792;17.626;2022-12-18T00:05:45;23.17;;;9.70;;
60612;SDS011;46443;59.792;17.626;2022-12-18T00:08:11;21.40;;;10.57;;
60612;SDS011;46443;59.792;17.626;2022-12-18T00:10:37;19.20;;;8.77;;
60612;SDS011;46443;59.792;17.626;2022-12-18T00:13:03;22.00;;;9.77;;
60612;SDS011;46443;59.792;17.626;2022-12-18T00:15:29;19.00;;;9.07;;
60612;SDS011;46443;59.792;17.626;2022-12-18T00:17:55;22.48;;;10.50;;
60612;SDS011;46443;59.792;17.626;2022-12-18T00:20:21;23.08;;;9.75;;
60612;SDS011;46443;59.792;17.626;2022-12-18T00:22:51;18.67;;;7.95;;
60612;SDS011;46443;59.792;17.626;2022-12-18T00:25:17;17.02;;;7.80;;
60612;SDS011;46443;59.792;17.626;2022-12-18T00:27:43;24.73;;;10.85;;
60612;SDS011;46443;59.792;17.626;2022-12-18T00:30:09;23.48;;;10.77;;
60612;SDS011;46443;59.792;17.626;2022-12-18T00:32:35;22.70;;;9.98;;
60612;SDS011;46443;59.792;17.626;2022-12-18T00:35:02;22.80;;;10.73;;
60612;SDS011;46443;59.792;17.626;2022-12-18T00:37:28;24.02;;;9.20;;
60612;SDS011;46443;59.792;17.626;2022-12-18T00:39:54;25.02;;;9.75;;
60612;SDS011;46443;59.792;17.626;2022-12-18T00:42:20;18.33;;;9.37;;
60612;SDS011;46443;59.792;17.626;2022-12-18T00:45:05;23.10;;;9.77;;
60612;SDS011;46443;59.792;17.626;2022-12-18T00:47:31;23.10;;;11.07;;
60612;SDS011;46443;59.792;17.626;2022-12-18T00:49:57;19.73;;;9.23;;
60612;SDS011;46443;59.792;17.626;2022-12-18T00:52:23;23.30;;;9.73;;
60612;SDS011;46443;59.792;17.626;2022-12-18T00:54:49;20.53;;;8.87;;
60612;SDS011;46443;59.792;17.626;2022-12-18T00:57:15;24.15;;;9.45;;
60612;SDS011;46443;59.792;17.626;2022-12-18T00:59:41;18.90;;;8.87;;
60612;SDS011;46443;59.792;17.626;2022-12-18T01:02:07;17.63;;;8.43;;
60612;SDS011;46443;59.792;17.626;2022-12-18T01:04:33;21.80;;;10.23;;
60612;SDS011;46443;59.792;17.626;2022-12-18T01:06:59;21.58;;;10.02;;
60612;SDS011;46443;59.792;17.626;2022-12-18T01:09:25;21.85;;;9.32;;
60612;SDS011;46443;59.792;17.626;2022-12-18T01:11:51;17.70;;;9.15;;
60612;SDS011;46443;59.792;17.626;2022-12-18T01:14:17;18.10;;;8.50;;
60612;SDS011;46443;59.792;17.626;2022-12-18T01:16:43;21.13;;;9.07;;
60612;SDS011;46443;59.792;17.626;2022-12-18T01:19:09;17.42;;;8.13;;
60612;SDS011;46443;59.792;17.626;2022-12-18T01:21:35;20.15;;;9.00;;
60612;SDS011;46443;59.792;17.626;2022-12-18T01:24:01;17.42;;;8.95;;
60612;SDS011;46443;59.792;17.626;2022-12-18T01:26:27;18.92;;;8.40;;
60612;SDS011;46443;59.792;17.626;2022-12-18T01:28:55;18.67;;;9.27;;
60612;SDS011;46443;59.792;17.626;2022-12-18T01:31:22;16.73;;;9.02;;
60612;SDS011;46443;59.792;17.626;2022-12-18T01:33:49;20.83;;;9.10;;
60612;SDS011;46443;59.792;17.626;2022-12-18T01:36:23;15.82;;;7.13;;
60612;SDS011;46443;59.792;17.626;2022-12-18T01:38:49;17.77;;;8.57;;
60612;SDS011;46443;59.792;17.626;2022-12-18T01:41:16;18.08;;;8.55;;
60612;SDS011;46443;59.792;17.626;2022-12-18T01:43:53;19.70;;;9.65;;
60612;SDS011;46443;59.792;17.626;2022-12-18T01:46:20;18.00;;;8.93;;
60612;SDS011;46443;59.792;17.626;2022-12-18T01:48:51;18.27;;;8.63;;
60612;SDS011;46443;59.792;17.626;2022-12-18T01:51:18;20.92;;;9.88;;
60612;SDS011;46443;59.792;17.626;2022-12-18T01:53:44;18.75;;;9.10;;
60612;SDS011;46443;59.792;17.626;2022-12-18T01:56:12;17.85;;;8.90;;
60612;SDS011;46443;59.792;17.626;2022-12-18T02:01:05;18.77;;;9.35;;
60612;SDS011;46443;59.792;17.626;2022-12-18T02:03:31;17.70;;;7.90;;
60612;SDS011;46443;59.792;17.626;2022-12-18T02:06:04;19.03;;;8.27;;
60612;SDS011;46443;59.792;17.626;2022-12-18T02:08:43;20.27;;;8.70;;
60612;SDS011;46443;59.792;17.626;2022-12-18T02:14:41;18.10;;;9.82;;
60612;SDS011;46443;59.792;17.626;2022-12-18T02:27:04;14.25;;;7.18;;
60612;SDS011;46443;59.792;17.626;2022-12-18T02:32:16;16.42;;;7.75;;
60612;SDS011;46443;59.792;17.626;2022-12-18T02:34:44;18.45;;;8.50;;
60612;SDS011;46443;59.792;17.626;2022-12-18T02:37:11;13.93;;;7.35;;
60612;SDS011;46443;59.792;17.626;2022-12-18T02:39:38;14.73;;;7.10;;
60612;SDS011;46443;59.792;17.626;2022-12-18T02:42:05;16.27;;;8.02;;
60612;SDS011;46443;59.792;17.626;2022-12-18T02:44:33;18.88;;;8.68;;
60612;SDS011;46443;59.792;17.626;2022-12-18T02:47:00;16.45;;;8.38;;
60612;SDS011;46443;59.792;17.626;2022-12-18T02:49:31;17.85;;;9.05;;
60612;SDS011;46443;59.792;17.626;2022-12-18T02:56:54;14.37;;;7.53;;
60612;SDS011;46443;59.792;17.626;2022-12-18T02:59:23;19.30;;;8.52;;
60612;SDS011;46443;59.792;17.626;2022-12-18T03:04:24;20.95;;;8.18;;
60612;SDS011;46443;59.792;17.626;2022-12-18T03:06:53;19.33;;;7.55;;
60612;SDS011;46443;59.792;17.626;2022-12-18T03:09:31;18.25;;;8.73;;
60612;SDS011;46443;59.792;17.626;2022-12-18T03:12:12;18.40;;;8.07;;
60612;SDS011;46443;59.792;17.626;2022-12-18T03:17:23;19.33;;;8.40;;
60612;SDS011;46443;59.792;17.626;2022-12-18T03:19:51;16.63;;;7.37;;
60612;SDS011;46443;59.792;17.626;2022-12-18T03:22:18;16.75;;;8.30;;
60612;SDS011;46443;59.792;17.626;2022-12-18T03:24:44;15.73;;;7.90;;
60612;SDS011;46443;59.792;17.626;2022-12-18T03:27:13;16.70;;;7.05;;
60612;SDS011;46443;59.792;17.626;2022-12-18T03:29:42;16.83;;;7.75;;
60612;SDS011;46443;59.792;17.626;2022-12-18T03:34:55;22.65;;;8.60;;
60612;SDS011;46443;59.792;17.626;2022-12-18T03:37:22;15.80;;;7.20;;
60612;SDS011;46443;59.792;17.626;2022-12-18T03:39:48;25.23;;;10.18;;
60612;SDS011;46443;59.792;17.626;2022-12-18T03:44:47;20.03;;;8.03;;
60612;SDS011;46443;59.792;17.626;2022-12-18T03:47:39;17.70;;;7.95;;
60612;SDS011;46443;59.792;17.626;2022-12-18T03:52:53;18.05;;;8.07;;
60612;SDS011;46443;59.792;17.626;2022-12-18T03:55:17;16.63;;;7.90;;
60612;SDS011;46443;59.792;17.626;2022-12-18T03:57:44;17.52;;;8.25;;
60612;SDS011;46443;59.792;17.626;2022-12-18T04:00:12;17.98;;;7.55;;
60612;SDS011;46443;59.792;17.626;2022-12-18T04:02:39;16.95;;;7.20;;
60612;SDS011;46443;59.792;17.626;2022-12-18T04:05:07;18.38;;;7.90;;
60612;SDS011;46443;59.792;17.626;2022-12-18T04:07:34;19.58;;;8.13;;
60612;SDS011;46443;59.792;17.626;2022-12-18T04:10:01;16.05;;;7.47;;
60612;SDS011;46443;59.792;17.626;2022-12-18T04:12:28;16.00;;;8.10;;
60612;SDS011;46443;59.792;17.626;2022-12-18T04:14:55;16.05;;;7.93;;
60612;SDS011;46443;59.792;17.626;2022-12-18T04:17:21;16.95;;;8.00;;
60612;SDS011;46443;59.792;17.626;2022-12-18T04:19:47;14.30;;;7.40;;
60612;SDS011;46443;59.792;17.626;2022-12-18T04:22:13;18.35;;;7.85;;
60612;SDS011;46443;59.792;17.626;2022-12-18T04:24:39;19.23;;;8.48;;
60612;SDS011;46443;59.792;17.626;2022-12-18T04:27:05;20.17;;;8.87;;
60612;SDS011;46443;59.792;17.626;2022-12-18T04:29:31;17.48;;;8.45;;
60612;SDS011;46443;59.792;17.626;2022-12-18T04:31:57;15.60;;;7.13;;
60612;SDS011;46443;59.792;17.626;2022-12-18T04:34:23;15.25;;;7.60;;
60612;SDS011;46443;59.792;17.626;2022-12-18T04:36:49;13.48;;;8.00;;
60612;SDS011;46443;59.792;17.626;2022-12-18T04:39:16;16.52;;;8.65;;
60612;SDS011;46443;59.792;17.626;2022-12-18T04:41:42;15.55;;;8.10;;
60612;SDS011;46443;59.792;17.626;2022-12-18T04:44:08;15.43;;;6.93;;
60612;SDS011;46443;59.792;17.626;2022-12-18T04:46:34;15.55;;;7.85;;
60612;SDS011;46443;59.792;17.626;2022-12-18T04:49:00;16.48;;;7.80;;
60612;SDS011;46443;59.792;17.626;2022-12-18T04:51:26;16.58;;;8.13;;
60612;SDS011;46443;59.792;17.626;2022-12-18T04:53:52;17.53;;;7.20;;
60612;SDS011;46443;59.792;17.626;2022-12-18T04:56:18;16.50;;;7.75;;
60612;SDS011;46443;59.792;17.626;2022-12-18T04:58:44;18.27;;;8.87;;
60612;SDS011;46443;59.792;17.626;2022-12-18T05:01:11;15.70;;;7.68;;
60612;SDS011;46443;59.792;17.626;2022-12-18T05:03:37;16.50;;;8.15;;
60612;SDS011;46443;59.792;17.626;2022-12-18T05:06:04;15.65;;;7.30;;
60612;SDS011;46443;59.792;17.626;2022-12-18T05:08:31;16.25;;;8.45;;
60612;SDS011;46443;59.792;17.626;2022-12-18T05:13:26;15.20;;;7.65;;
60612;SDS011;46443;59.792;17.626;2022-12-18T05:15:52;21.80;;;8.65;;
60612;SDS011;46443;59.792;17.626;2022-12-18T05:18:18;12.43;;;6.45;;
60612;SDS011;46443;59.792;17.626;2022-12-18T05:20:44;18.15;;;7.90;;
60612;SDS011;46443;59.792;17.626;2022-12-18T05:23:11;20.45;;;7.60;;
60612;SDS011;46443;59.792;17.626;2022-12-18T05:25:37;17.73;;;7.63;;
60612;SDS011;46443;59.792;17.626;2022-12-18T05:28:03;14.10;;;7.77;;
60612;SDS011;46443;59.792;17.626;2022-12-18T05:30:29;11.75;;;6.70;;
60612;SDS011;46443;59.792;17.626;2022-12-18T05:32:55;18.50;;;9.25;;
60612;SDS011;46443;59.792;17.626;2022-12-18T05:35:21;17.43;;;7.77;;
60612;SDS011;46443;59.792;17.626;2022-12-18T05:37:47;16.93;;;8.27;;
60612;SDS011;46443;59.792;17.626;2022-12-18T05:40:13;15.70;;;8.43;;
60612;SDS011;46443;59.792;17.626;2022-12-18T05:42:39;16.55;;;7.57;;
60612;SDS011;46443;59.792;17.626;2022-12-18T05:45:05;18.07;;;8.23;;
60612;SDS011;46443;59.792;17.626;2022-12-18T05:47:31;14.85;;;6.57;;
60612;SDS011;46443;59.792;17.626;2022-12-18T05:49:57;15.35;;;7.88;;
60612;SDS011;46443;59.792;17.626;2022-12-18T05:52:23;19.23;;;8.43;;
60612;SDS011;46443;59.792;17.626;2022-12-18T05:54:49;15.48;;;7.18;;
60612;SDS011;46443;59.792;17.626;2022-12-18T05:57:15;17.40;;;7.75;;
60612;SDS011;46443;59.792;17.626;2022-12-18T05:59:41;18.35;;;8.70;;
60612;SDS011;46443;59.792;17.626;2022-12-18T06:02:07;15.17;;;7.47;;
60612;SDS011;46443;59.792;17.626;2022-12-18T06:04:33;17.48;;;7.80;;
60612;SDS011;46443;59.792;17.626;2022-12-18T06:06:59;18.80;;;8.50;;
60612;SDS011;46443;59.792;17.626;2022-12-18T06:09:25;15.70;;;8.13;;
60612;SDS011;46443;59.792;17.626;2022-12-18T06:11:52;18.10;;;9.30;;
60612;SDS011;46443;59.792;17.626;2022-12-18T06:14:18;18.50;;;7.82;;
60612;SDS011;46443;59.792;17.626;2022-12-18T06:16:44;14.60;;;7.45;;
60612;SDS011;46443;59.792;17.626;2022-12-18T06:19:12;17.73;;;8.50;;
60612;SDS011;46443;59.792;17.626;2022-12-18T06:21:39;21.23;;;8.18;;
60612;SDS011;46443;59.792;17.626;2022-12-18T06:24:05;16.20;;;8.73;;
60612;SDS011;46443;59.792;17.626;2022-12-18T06:26:31;20.80;;;7.95;;
60612;SDS011;46443;59.792;17.626;2022-12-18T06:28:57;19.17;;;9.77;;
60612;SDS011;46443;59.792;17.626;2022-12-18T06:31:23;16.25;;;7.57;;
60612;SDS011;46443;59.792;17.626;2022-12-18T06:33:50;17.98;;;7.75;;
60612;SDS011;46443;59.792;17.626;2022-12-18T06:36:16;16.83;;;7.57;;
60612;SDS011;46443;59.792;17.626;2022-12-18T06:38:42;17.25;;;7.65;;
60612;SDS011;46443;59.792;17.626;2022-12-18T06:43:35;18.67;;;7.93;;
60612;SDS011;46443;59.792;17.626;2022-12-18T06:46:01;15.70;;;7.90;;
60612;SDS011;46443;59.792;17.626;2022-12-18T06:48:28;15.75;;;7.88;;
60612;SDS011;46443;59.792;17.626;2022-12-18T06:50:54;16.77;;;7.75;;
60612;SDS011;46443;59.792;17.626;2022-12-18T06:53:20;15.05;;;7.57;;
60612;SDS011;46443;59.792;17.626;2022-12-18T06:55:47;19.30;;;8.60;;
60612;SDS011;46443;59.792;17.626;2022-12-18T06:58:13;15.20;;;7.35;;
60612;SDS011;46443;59.792;17.626;2022-12-18T07:00:39;15.23;;;8.25;;
60612;SDS011;46443;59.792;17.626;2022-12-18T07:03:05;17.92;;;9.07;;
60612;SDS011;46443;59.792;17.626;2022-12-18T07:05:31;21.25;;;9.27;;
60612;SDS011;46443;59.792;17.626;2022-12-18T07:07:57;19.07;;;8.33;;
60612;SDS011;46443;59.792;17.626;2022-12-18T07:10:23;16.90;;;7.80;;
60612;SDS011;46443;59.792;17.626;2022-12-18T07:12:49;16.43;;;8.13;;
60612;SDS011;46443;59.792;17.626;2022-12-18T07:15:16;15.48;;;7.28;;
60612;SDS011;46443;59.792;17.626;2022-12-18T07:17:42;14.63;;;8.00;;
60612;SDS011;46443;59.792;17.626;2022-12-18T07:20:08;20.17;;;8.77;;
60612;SDS011;46443;59.792;17.626;2022-12-18T07:22:34;16.33;;;8.25;;
60612;SDS011;46443;59.792;17.626;2022-12-18T07:25:00;19.87;;;9.03;;
60612;SDS011;46443;59.792;17.626;2022-12-18T07:27:26;16.85;;;8.13;;
60612;SDS011;46443;59.792;17.626;2022-12-18T07:29:52;18.63;;;9.35;;
60612;SDS011;46443;59.792;17.626;2022-12-18T07:32:18;15.07;;;7.53;;
60612;SDS011;46443;59.792;17.626;2022-12-18T07:34:44;20.50;;;10.57;;
60612;SDS011;46443;59.792;17.626;2022-12-18T07:37:10;16.40;;;7.77;;
60612;SDS011;46443;59.792;17.626;2022-12-18T07:39:36;15.80;;;8.00;;
60612;SDS011;46443;59.792;17.626;2022-12-18T07:42:02;17.43;;;8.87;;
60612;SDS011;46443;59.792;17.626;2022-12-18T07:44:47;16.27;;;7.63;;
60612;SDS011;46443;59.792;17.626;2022-12-18T07:47:13;16.60;;;7.47;;
60612;SDS011;46443;59.792;17.626;2022-12-18T07:49:39;16.10;;;8.00;;
60612;SDS011;46443;59.792;17.626;2022-12-18T07:52:05;16.87;;;8.63;;
60612;SDS011;46443;59.792;17.626;2022-12-18T07:54:31;19.05;;;8.05;;
60612;SDS011;46443;59.792;17.626;2022-12-18T07:56:57;15.20;;;7.90;;
60612;SDS011;46443;59.792;17.626;2022-12-18T07:59:23;16.50;;;8.38;;
60612;SDS011;46443;59.792;17.626;2022-12-18T08:01:49;16.17;;;8.07;;
60612;SDS011;46443;59.792;17.626;2022-12-18T08:04:15;20.07;;;9.07;;
60612;SDS011;46443;59.792;17.626;2022-12-18T08:06:41;15.05;;;7.80;;
60612;SDS011;46443;59.792;17.626;2022-12-18T08:09:07;20.17;;;8.90;;
60612;SDS011;46443;59.792;17.626;2022-12-18T08:11:33;19.95;;;8.68;;
60612;SDS011;46443;59.792;17.626;2022-12-18T08:13:59;20.17;;;9.03;;
60612;SDS011;46443;59.792;17.626;2022-12-18T08:16:26;20.20;;;8.77;;
60612;SDS011;46443;59.792;17.626;2022-12-18T08:18:52;19.80;;;8.32;;
60612;SDS011;46443;59.792;17.626;2022-12-18T08:21:26;18.77;;;9.15;;
60612;SDS011;46443;59.792;17.626;2022-12-18T08:23:53;16.25;;;7.82;;
60612;SDS011;46443;59.792;17.626;2022-12-18T08:26:19;18.08;;;9.07;;
60612;SDS011;46443;59.792;17.626;2022-12-18T08:28:46;19.63;;;9.15;;
60612;SDS011;46443;59.792;17.626;2022-12-18T08:31:12;19.95;;;8.35;;
60612;SDS011;46443;59.792;17.626;2022-12-18T08:33:38;19.10;;;8.18;;
60612;SDS011;46443;59.792;17.626;2022-12-18T08:36:04;16.63;;;8.52;;
60612;SDS011;46443;59.792;17.626;2022-12-18T08:38:31;19.08;;;10.05;;
60612;SDS011;46443;59.792;17.626;2022-12-18T08:41:01;18.73;;;10.35;;
60612;SDS011;46443;59.792;17.626;2022-12-18T08:43:28;17.08;;;9.18;;
60612;SDS011;46443;59.792;17.626;2022-12-18T08:46:12;16.70;;;8.50;;
60612;SDS011;46443;59.792;17.626;2022-12-18T08:48:40;18.02;;;9.43;;
60612;SDS011;46443;59.792;17.626;2022-12-18T08:51:06;19.23;;;9.50;;
60612;SDS011;46443;59.792;17.626;2022-12-18T08:53:34;16.95;;;8.55;;
60612;SDS011;46443;59.792;17.626;2022-12-18T08:56:00;23.42;;;8.98;;
60612;SDS011;46443;59.792;17.626;2022-12-18T08:58:26;21.80;;;11.57;;
60612;SDS011;46443;59.792;17.626;2022-12-18T09:00:52;19.33;;;8.87;;
60612;SDS011;46443;59.792;17.626;2022-12-18T09:03:18;22.60;;;9.23;;
60612;SDS011;46443;59.792;17.626;2022-12-18T09:05:47;18.98;;;9.93;;
60612;SDS011;46443;59.792;17.626;2022-12-18T09:08:13;17.25;;;8.85;;
60612;SDS011;46443;59.792;17.626;2022-12-18T09:10:43;19.52;;;9.50;;
60612;SDS011;46443;59.792;17.626;2022-12-18T09:13:09;19.48;;;8.38;;
60612;SDS011;46443;59.792;17.626;2022-12-18T09:15:54;14.77;;;7.22;;
60612;SDS011;46443;59.792;17.626;2022-12-18T09:18:21;15.50;;;7.72;;
60612;SDS011;46443;59.792;17.626;2022-12-18T09:20:48;16.25;;;8.45;;
60612;SDS011;46443;59.792;17.626;2022-12-18T09:23:16;21.15;;;11.18;;
60612;SDS011;46443;59.792;17.626;2022-12-18T09:25:42;17.33;;;9.98;;
60612;SDS011;46443;59.792;17.626;2022-12-18T09:28:10;17.58;;;9.48;;
60612;SDS011;46443;59.792;17.626;2022-12-18T09:30:57;18.45;;;8.52;;
60612;SDS011;46443;59.792;17.626;2022-12-18T09:33:23;18.30;;;8.90;;
60612;SDS011;46443;59.792;17.626;2022-12-18T09:35:49;21.40;;;9.90;;
60612;SDS011;46443;59.792;17.626;2022-12-18T09:38:18;19.25;;;9.80;;
60612;SDS011;46443;59.792;17.626;2022-12-18T09:40:48;16.55;;;9.73;;
60612;SDS011;46443;59.792;17.626;2022-12-18T09:43:17;15.10;;;9.32;;
60612;SDS011;46443;59.792;17.626;2022-12-18T09:45:45;15.18;;;8.10;;
60612;SDS011;46443;59.792;17.626;2022-12-18T09:48:18;16.83;;;9.40;;
60612;SDS011;46443;59.792;17.626;2022-12-18T09:50:45;20.52;;;10.35;;
60612;SDS011;46443;59.792;17.626;2022-12-18T09:53:15;18.63;;;8.97;;
60612;SDS011;46443;59.792;17.626;2022-12-18T09:55:42;15.90;;;8.82;;
60612;SDS011;46443;59.792;17.626;2022-12-18T10:00:53;16.03;;;8.73;;
60612;SDS011;46443;59.792;17.626;2022-12-18T10:03:20;16.53;;;9.53;;
60612;SDS011;46443;59.792;17.626;2022-12-18T10:05:50;16.00;;;8.83;;
60612;SDS011;46443;59.792;17.626;2022-12-18T10:10:49;18.07;;;9.80;;
60612;SDS011;46443;59.792;17.626;2022-12-18T10:18:26;15.63;;;8.00;;
60612;SDS011;46443;59.792;17.626;2022-12-18T10:20:56;18.20;;;9.97;;
60612;SDS011;46443;59.792;17.626;2022-12-18T10:26:04;18.27;;;9.20;;
60612;SDS011;46443;59.792;17.626;2022-12-18T10:28:31;17.63;;;9.30;;
60612;SDS011;46443;59.792;17.626;2022-12-18T10:30:57;16.30;;;9.07;;
60612;SDS011;46443;59.792;17.626;2022-12-18T10:33:27;17.83;;;9.65;;
60612;SDS011;46443;59.792;17.626;2022-12-18T10:35:53;16.77;;;9.70;;
60612;SDS011;46443;59.792;17.626;2022-12-18T10:38:24;16.60;;;9.47;;
60612;SDS011;46443;59.792;17.626;2022-12-18T10:40:54;15.33;;;9.37;;
60612;SDS011;46443;59.792;17.626;2022-12-18T10:51:00;18.33;;;9.43;;
60612;SDS011;46443;59.792;17.626;2022-12-18T10:53:29;15.03;;;8.00;;
60612;SDS011;46443;59.792;17.626;2022-12-18T10:55:56;18.95;;;9.18;;
60612;SDS011;46443;59.792;17.626;2022-12-18T10:58:27;17.50;;;8.97;;
60612;SDS011;46443;59.792;17.626;2022-12-18T11:01:01;16.17;;;8.20;;
60612;SDS011;46443;59.792;17.626;2022-12-18T11:04:29;18.17;;;8.50;;
60612;SDS011;46443;59.792;17.626;2022-12-18T11:06:23;15.50;;;7.40;;
60612;SDS011;46443;59.792;17.626;2022-12-18T11:09:00;15.97;;;8.60;;
60612;SDS011;46443;59.792;17.626;2022-12-18T11:11:26;15.93;;;8.03;;
60612;SDS011;46443;59.792;17.626;2022-12-18T11:16:21;17.33;;;8.53;;
60612;SDS011;46443;59.792;17.626;2022-12-18T11:18:48;12.97;;;7.30;;
60612;SDS011;46443;59.792;17.626;2022-12-18T11:21:14;16.80;;;7.90;;
60612;SDS011;46443;59.792;17.626;2022-12-18T11:23:50;15.70;;;7.80;;
60612;SDS011;46443;59.792;17.626;2022-12-18T11:26:16;12.70;;;6.70;;
60612;SDS011;46443;59.792;17.626;2022-12-18T11:28:50;18.03;;;8.13;;
60612;SDS011;46443;59.792;17.626;2022-12-18T11:34:02;13.70;;;6.43;;
60612;SDS011;46443;59.792;17.626;2022-12-18T11:36:34;13.00;;;6.30;;
60612;SDS011;46443;59.792;17.626;2022-12-18T11:39:05;12.73;;;6.87;;
60612;SDS011;46443;59.792;17.626;2022-12-18T11:41:37;14.40;;;6.63;;
60612;SDS011;46443;59.792;17.626;2022-12-18T11:44:31;11.70;;;6.10;;
60612;SDS011;46443;59.792;17.626;2022-12-18T11:47:09;14.53;;;6.33;;
60612;SDS011;46443;59.792;17.626;2022-12-18T11:49:39;16.88;;;6.47;;
60612;SDS011;46443;59.792;17.626;2022-12-18T11:54:36;11.93;;;6.20;;
60612;SDS011;46443;59.792;17.626;2022-12-18T11:57:45;10.73;;;4.83;;
60612;SDS011;46443;59.792;17.626;2022-12-18T11:59:55;12.00;;;5.85;;
60612;SDS011;46443;59.792;17.626;2022-12-18T12:07:43;11.53;;;5.63;;
60612;SDS011;46443;59.792;17.626;2022-12-18T12:13:01;12.70;;;6.03;;
60612;SDS011;46443;59.792;17.626;2022-12-18T12:15:36;11.10;;;4.83;;
60612;SDS011;46443;59.792;17.626;2022-12-18T12:26:07;13.23;;;6.00;;
60612;SDS011;46443;59.792;17.626;2022-12-18T12:33:38;9.80;;;5.53;;
60612;SDS011;46443;59.792;17.626;2022-12-18T12:38:35;10.00;;;5.20;;
60612;SDS011;46443;59.792;17.626;2022-12-18T12:41:04;12.30;;;5.00;;
60612;SDS011;46443;59.792;17.626;2022-12-18T12:46:00;10.10;;;4.10;;
60612;SDS011;46443;59.792;17.626;2022-12-18T12:51:00;11.23;;;6.30;;
60612;SDS011;46443;59.792;17.626;2022-12-18T12:53:32;11.37;;;4.77;;
60612;SDS011;46443;59.792;17.626;2022-12-18T12:55:59;12.40;;;4.77;;
60612;SDS011;46443;59.792;17.626;2022-12-18T13:06:02;10.20;;;4.70;;
60612;SDS011;46443;59.792;17.626;2022-12-18T13:08:31;9.77;;;4.13;;
60612;SDS011;46443;59.792;17.626;2022-12-18T13:10:58;9.73;;;4.40;;
60612;SDS011;46443;59.792;17.626;2022-12-18T13:13:50;9.50;;;4.47;;
60612;SDS011;46443;59.792;17.626;2022-12-18T13:16:18;11.63;;;4.13;;
60612;SDS011;46443;59.792;17.626;2022-12-18T13:18:54;9.70;;;4.00;;
60612;SDS011;46443;59.792;17.626;2022-12-18T13:21:27;12.30;;;4.43;;
60612;SDS011;46443;59.792;17.626;2022-12-18T13:23:53;9.07;;;3.80;;
60612;SDS011;46443;59.792;17.626;2022-12-18T13:28:50;8.43;;;4.73;;
60612;SDS011;46443;59.792;17.626;2022-12-18T13:36:37;5.43;;;2.93;;
60612;SDS011;46443;59.792;17.626;2022-12-18T13:41:35;5.83;;;2.30;;
60612;SDS011;46443;59.792;17.626;2022-12-18T13:49:03;6.27;;;2.60;;
60612;SDS011;46443;59.792;17.626;2022-12-18T13:51:31;9.80;;;2.90;;
60612;SDS011;46443;59.792;17.626;2022-12-18T13:54:02;6.33;;;3.17;;
60612;SDS011;46443;59.792;17.626;2022-12-18T13:56:31;7.53;;;2.83;;
60612;SDS011;46443;59.792;17.626;2022-12-18T14:01:30;4.87;;;2.13;;
60612;SDS011;46443;59.792;17.626;2022-12-18T14:04:12;5.47;;;2.53;;
60612;SDS011;46443;59.792;17.626;2022-12-18T14:06:38;6.10;;;2.10;;
60612;SDS011;46443;59.792;17.626;2022-12-18T14:09:04;5.00;;;2.40;;
60612;SDS011;46443;59.792;17.626;2022-12-18T14:11:30;8.53;;;3.20;;
60612;SDS011;46443;59.792;17.626;2022-12-18T14:13:57;6.10;;;2.53;;
60612;SDS011;46443;59.792;17.626;2022-12-18T14:16:23;8.13;;;2.43;;
60612;SDS011;46443;59.792;17.626;2022-12-18T14:21:20;6.47;;;2.07;;
60612;SDS011;46443;59.792;17.626;2022-12-18T14:23:47;7.57;;;2.50;;
60612;SDS011;46443;59.792;17.626;2022-12-18T14:28:48;5.47;;;2.30;;
60612;SDS011;46443;59.792;17.626;2022-12-18T14:31:18;7.10;;;2.10;;
60612;SDS011;46443;59.792;17.626;2022-12-18T14:33:44;6.93;;;2.47;;
60612;SDS011;46443;59.792;17.626;2022-12-18T14:36:20;6.77;;;2.23;;
60612;SDS011;46443;59.792;17.626;2022-12-18T14:38:56;5.53;;;1.97;;
60612;SDS011;46443;59.792;17.626;2022-12-18T14:41:23;11.13;;;2.67;;
60612;SDS011;46443;59.792;17.626;2022-12-18T14:43:50;8.13;;;2.60;;
60612;SDS011;46443;59.792;17.626;2022-12-18T14:48:55;7.73;;;2.30;;
60612;SDS011;46443;59.792;17.626;2022-12-18T14:51:22;4.33;;;2.10;;
60612;SDS011;46443;59.792;17.626;2022-12-18T14:53:53;7.80;;;2.50;;
60612;SDS011;46443;59.792;17.626;2022-12-18T14:56:21;7.43;;;2.17;;
60612;SDS011;46443;59.792;17.626;2022-12-18T14:58:54;10.83;;;2.40;;
60612;SDS011;46443;59.792;17.626;2022-12-18T15:01:22;6.30;;;2.00;;
60612;SDS011;46443;59.792;17.626;2022-12-18T15:03:49;4.60;;;2.17;;
60612;SDS011;46443;59.792;17.626;2022-12-18T15:06:21;4.17;;;2.07;;
60612;SDS011;46443;59.792;17.626;2022-12-18T15:08:50;4.17;;;2.33;;
60612;SDS011;46443;59.792;17.626;2022-12-18T15:11:24;7.20;;;2.30;;
60612;SDS011;46443;59.792;17.626;2022-12-18T15:13:51;7.07;;;2.33;;
60612;SDS011;46443;59.792;17.626;2022-12-18T15:16:17;4.10;;;2.00;;
60612;SDS011;46443;59.792;17.626;2022-12-18T15:18:43;9.07;;;2.90;;
60612;SDS011;46443;59.792;17.626;2022-12-18T15:21:10;6.70;;;2.70;;
60612;SDS011;46443;59.792;17.626;2022-12-18T15:26:10;4.97;;;2.17;;
60612;SDS011;46443;59.792;17.626;2022-12-18T15:31:04;11.33;;;3.30;;
60612;SDS011;46443;59.792;17.626;2022-12-18T15:33:32;4.50;;;2.00;;
60612;SDS011;46443;59.792;17.626;2022-12-18T15:36:02;7.67;;;2.10;;
60612;SDS011;46443;59.792;17.626;2022-12-18T15:38:29;5.53;;;1.90;;
60612;SDS011;46443;59.792;17.626;2022-12-18T15:40:55;7.47;;;2.13;;
60612;SDS011;46443;59.792;17.626;2022-12-18T15:43:22;5.63;;;2.10;;
60612;SDS011;46443;59.792;17.626;2022-12-18T15:46:01;5.15;;;2.45;;
60612;SDS011;46443;59.792;17.626;2022-12-18T15:48:28;5.13;;;2.27;;
60612;SDS011;46443;59.792;17.626;2022-12-18T15:50:55;6.30;;;2.87;;
60612;SDS011;46443;59.792;17.626;2022-12-18T15:53:22;7.03;;;2.53;;
60612;SDS011;46443;59.792;17.626;2022-12-18T15:55:49;7.03;;;2.37;;
60612;SDS011;46443;59.792;17.626;2022-12-18T15:58:33;8.23;;;2.37;;
60612;SDS011;46443;59.792;17.626;2022-12-18T16:01:00;8.80;;;2.40;;
60612;SDS011;46443;59.792;17.626;2022-12-18T16:03:26;7.97;;;2.37;;
60612;SDS011;46443;59.792;17.626;2022-12-18T16:05:52;8.70;;;2.40;;
60612;SDS011;46443;59.792;17.626;2022-12-18T16:08:18;3.53;;;1.90;;
60612;SDS011;46443;59.792;17.626;2022-12-18T16:10:44;4.60;;;2.33;;
60612;SDS011;46443;59.792;17.626;2022-12-18T16:13:11;4.77;;;2.10;;
60612;SDS011;46443;59.792;17.626;2022-12-18T16:15:37;10.47;;;2.50;;
60612;SDS011;46443;59.792;17.626;2022-12-18T16:18:03;9.67;;;2.63;;
60612;SDS011;46443;59.792;17.626;2022-12-18T16:20:29;5.00;;;1.93;;
60612;SDS011;46443;59.792;17.626;2022-12-18T16:22:55;4.43;;;1.77;;
60612;SDS011;46443;59.792;17.626;2022-12-18T16:25:25;5.67;;;2.37;;
60612;SDS011;46443;59.792;17.626;2022-12-18T16:27:52;2.63;;;1.60;;
60612;SDS011;46443;59.792;17.626;2022-12-18T16:30:21;8.77;;;2.30;;
60612;SDS011;46443;59.792;17.626;2022-12-18T16:32:47;7.00;;;2.30;;
60612;SDS011;46443;59.792;17.626;2022-12-18T16:35:14;6.70;;;3.47;;
60612;SDS011;46443;59.792;17.626;2022-12-18T16:37:41;7.10;;;1.90;;
60612;SDS011;46443;59.792;17.626;2022-12-18T16:40:08;7.80;;;2.00;;
60612;SDS011;46443;59.792;17.626;2022-12-18T16:42:38;4.50;;;2.03;;
60612;SDS011;46443;59.792;17.626;2022-12-18T16:45:04;7.22;;;2.33;;